Time;durP1;ratioP1;P1;durP2;ratioP2;P2;SDS_P1;SDS_P2;PMS_P1;PMS_P2;Temp;Humidity;BMP_temperature;BMP_pressure;BME280_temperature;BME280_humidity;BME280_pressure;Samples;Min_cycle;Max_cycle;Signal;HPM_P1;HPM_P2
2022/01/22 00:00:31;;;;;;;1.60;0.45;;;;;;;13.53;68.12;101322.59;5066532;28;20140;-70
2022/01/22 00:02:59;;;;;;;4.68;0.50;;;;;;;13.51;67.96;101316.38;5079555;28;20102;-71
2022/01/22 00:05:28;;;;;;;2.05;0.40;;;;;;;13.48;68.02;101322.53;5068439;28;20073;-71
2022/01/22 00:07:55;;;;;;;2.40;0.82;;;;;;;13.47;68.02;101319.84;5064185;28;20051;-70
2022/01/22 00:10:24;;;;;;;4.20;0.65;;;;;;;13.44;67.99;101314.53;5063885;28;20060;-71
2022/01/22 00:15:41;;;;;;;1.45;0.68;;;;;;;13.48;67.85;101317.22;4993975;28;20057;-70
2022/01/22 00:18:10;;;;;;;3.83;0.82;;;;;;;13.52;67.81;101315.53;5024472;28;20047;-70
2022/01/22 00:20:39;;;;;;;2.42;0.70;;;;;;;13.53;68.19;101311.97;5035153;28;20124;-70
2022/01/22 00:23:07;;;;;;;5.85;1.10;;;;;;;13.56;68.03;101307.63;5019659;28;20200;-69
2022/01/22 00:25:36;;;;;;;4.85;0.43;;;;;;;13.60;68.24;101304.97;5040451;28;20457;-71
2022/01/22 00:28:04;;;;;;;1.65;0.47;;;;;;;13.61;68.32;101301.47;5034865;28;20056;-71
2022/01/22 00:30:33;;;;;;;16.00;1.10;;;;;;;13.64;68.34;101294.44;5065380;28;20045;-71
2022/01/22 00:33:01;;;;;;;1.27;0.40;;;;;;;13.71;68.31;101291.00;5050073;28;20116;-70
2022/01/22 00:35:28;;;;;;;4.57;1.33;;;;;;;13.71;68.54;101287.44;5049550;28;20037;-71
2022/01/22 00:37:59;;;;;;;7.15;0.77;;;;;;;13.82;68.09;101285.78;5051115;28;20039;-70
2022/01/22 00:40:28;;;;;;;0.90;0.55;;;;;;;13.82;68.12;101280.47;5032579;28;23987;-70
2022/01/22 00:42:56;;;;;;;5.57;0.65;;;;;;;13.83;68.19;101280.50;5033541;28;20041;-71
2022/01/22 00:45:23;;;;;;;2.15;0.70;;;;;;;13.81;68.24;101278.69;5047702;28;20046;-70
2022/01/22 00:47:51;;;;;;;9.05;0.85;;;;;;;13.82;68.33;101273.41;5033776;28;20122;-70
2022/01/22 00:50:21;;;;;;;4.68;1.80;;;;;;;13.89;68.16;101269.06;5029245;28;20405;-71
2022/01/22 00:52:50;;;;;;;3.40;0.95;;;;;;;13.90;68.21;101268.19;5036307;28;20045;-70
2022/01/22 00:55:19;;;;;;;1.85;0.95;;;;;;;13.91;68.20;101273.47;5039880;28;20156;-70
2022/01/22 00:57:47;;;;;;;1.67;0.60;;;;;;;13.87;68.90;101266.38;5048696;28;20124;-70
2022/01/22 01:00:17;;;;;;;2.55;0.88;;;;;;;13.79;69.58;101265.41;5031622;28;20033;-70
2022/01/22 01:02:46;;;;;;;1.63;0.68;;;;;;;13.66;70.33;101273.22;5050368;28;20045;-70
2022/01/22 01:05:14;;;;;;;6.25;1.00;;;;;;;13.59;70.72;101252.81;5040679;28;20609;-70
2022/01/22 01:07:43;;;;;;;3.13;0.70;;;;;;;13.43;71.50;101257.94;5049203;28;20069;-70
2022/01/22 01:10:17;;;;;;;2.47;0.55;;;;;;;13.40;71.60;101249.94;5047117;28;20036;-69
2022/01/22 01:12:49;;;;;;;3.70;0.80;;;;;;;13.40;71.41;101243.75;5050359;28;20452;-69
2022/01/22 01:15:34;;;;;;;1.80;0.65;;;;;;;13.31;71.90;101249.84;5040917;28;20045;-70
2022/01/22 01:32:10;;;;;;;3.78;0.90;;;;;;;13.26;72.41;101248.88;5038594;28;20452;-70
2022/01/22 01:32:17;;;;;;;3.35;0.60;;;;;;;13.12;72.90;101234.53;5024391;28;20318;-70
2022/01/22 01:34:46;;;;;;;4.57;1.70;;;;;;;13.12;73.11;101235.47;5031618;28;20496;-70
2022/01/22 01:37:16;;;;;;;6.63;1.00;;;;;;;13.20;73.05;101245.25;5058746;28;20041;-70
2022/01/22 01:39:47;;;;;;;4.60;1.08;;;;;;;13.16;73.08;101242.59;5036311;28;20053;-69
2022/01/22 01:42:19;;;;;;;4.20;0.90;;;;;;;13.16;73.49;101239.94;5063177;28;20051;-70
2022/01/22 01:44:50;;;;;;;3.95;0.75;;;;;;;13.15;73.63;101243.44;5031484;28;20409;-70
2022/01/22 01:47:30;;;;;;;2.72;0.80;;;;;;;13.12;74.04;101242.50;5064368;28;20558;-70
2022/01/22 01:49:58;;;;;;;5.90;0.90;;;;;;;13.13;74.31;101241.63;5069034;28;20519;-70
2022/01/22 01:52:39;;;;;;;5.97;1.45;;;;;;;13.12;74.84;101234.53;5055667;28;20463;-70
2022/01/22 01:55:12;;;;;;;;;;;;;;;12.92;75.13;101236.03;5041352;28;20866;-70
2022/01/22 01:57:40;;;;;;;4.63;0.70;;;;;;;13.05;75.05;101237.97;5035138;28;19927;-70
2022/01/22 02:00:18;;;;;;;5.43;0.77;;;;;;;12.98;75.46;101246.72;5029184;28;20045;-70
2022/01/22 02:02:52;;;;;;;8.15;1.20;;;;;;;13.00;75.63;101247.63;5029490;28;20049;-70
2022/01/22 02:05:23;;;;;;;2.88;0.90;;;;;;;13.04;75.85;101244.16;5028428;28;20043;-70
2022/01/22 02:07:55;;;;;;;4.07;1.00;;;;;;;13.11;75.35;101246.91;5035171;28;20416;-70
2022/01/22 02:10:29;;;;;;;7.22;1.17;;;;;;;13.12;75.31;101242.50;5041901;28;20073;-70
2022/01/22 02:24:10;;;;;;;3.72;0.70;;;;;;;12.88;75.36;101229.78;5042839;28;20053;-69
2022/01/22 02:26:37;;;;;;;2.35;0.88;;;;;;;12.81;75.24;101224.38;5027337;28;20041;-69
2022/01/22 02:29:07;;;;;;;4.97;0.77;;;;;;;12.78;75.42;101219.94;5039609;28;20072;-70
2022/01/22 02:32:14;;;;;;;5.15;0.80;;;;;;;12.75;75.40;101218.13;5042536;28;20397;-70
2022/01/22 02:34:51;;;;;;;6.68;1.00;;;;;;;12.73;75.38;101225.16;5032588;28;20492;-70
2022/01/22 02:37:23;;;;;;;2.53;0.70;;;;;;;12.69;75.29;101222.47;5044542;28;21908;-70
2022/01/22 02:40:02;;;;;;;2.00;0.90;;;;;;;12.65;75.22;101216.25;5027962;28;20049;-71
2022/01/22 02:42:33;;;;;;;1.95;0.60;;;;;;;12.66;75.04;101218.03;5027537;28;20046;-70
2022/01/22 02:45:06;;;;;;;2.67;0.52;;;;;;;12.67;74.92;101229.47;5037433;28;20048;-70
2022/01/22 02:47:35;;;;;;;2.25;0.73;;;;;;;12.74;74.51;101226.06;5011192;28;20053;-70
2022/01/22 02:50:04;;;;;;;2.67;1.00;;;;;;;12.76;74.25;101221.69;5032464;28;20044;-70
2022/01/22 02:52:35;;;;;;;2.20;0.50;;;;;;;12.74;74.12;101211.06;5043979;28;20693;-70
2022/01/22 02:55:05;;;;;;;2.58;1.17;;;;;;;12.63;74.29;101207.38;5049221;28;20519;-71
2022/01/22 02:57:34;;;;;;;5.07;1.35;;;;;;;12.71;73.90;101208.38;5050699;28;20102;-70
2022/01/22 03:00:05;;;;;;;3.55;0.93;;;;;;;12.76;73.52;101206.69;5030990;28;20459;-70
2022/01/22 03:02:33;;;;;;;2.03;0.80;;;;;;;12.74;73.35;101194.25;5023194;28;20045;-70
2022/01/22 03:05:01;;;;;;;1.48;0.60;;;;;;;12.75;73.16;101189.00;5047381;28;20448;-71
2022/01/22 03:07:29;;;;;;;2.80;0.63;;;;;;;12.81;72.98;101195.25;5050331;28;20056;-70
2022/01/22 03:10:02;;;;;;;1.60;0.77;;;;;;;12.87;72.68;101185.63;5032644;28;20052;-71
2022/01/22 03:12:51;;;;;;;3.60;0.70;;;;;;;12.84;72.65;101179.41;5023466;28;20033;-70
2022/01/22 03:18:10;;;;;;;0.98;0.70;;;;;;;12.88;72.41;101175.91;5034867;28;20045;-71
2022/01/22 03:20:48;;;;;;;3.95;1.02;;;;;;;12.88;72.37;101155.59;5047643;28;20041;-69
2022/01/22 03:28:55;;;;;;;4.03;1.30;;;;;;;12.87;72.23;101166.16;5070920;28;20047;-70
2022/01/22 03:31:24;;;;;;;5.25;0.80;;;;;;;12.88;72.16;101170.59;5037861;28;20044;-70
2022/01/22 03:33:52;;;;;;;4.80;0.90;;;;;;;12.83;72.25;101169.66;5038747;28;20082;-70
2022/01/22 03:36:20;;;;;;;3.55;1.20;;;;;;;12.78;72.32;101167.84;5030644;28;20049;-70
2022/01/22 03:38:48;;;;;;;2.40;0.80;;;;;;;12.80;72.21;101173.16;5034955;28;20444;-70
2022/01/22 03:41:18;;;;;;;2.28;1.10;;;;;;;12.80;72.09;101167.00;5046657;28;20041;-70
2022/01/22 03:43:54;;;;;;;6.53;1.17;;;;;;;12.72;72.15;101157.19;5033193;28;20038;-70
2022/01/22 03:46:23;;;;;;;6.65;1.98;;;;;;;12.68;72.11;101155.34;5027312;28;20497;-70
2022/01/22 03:48:52;;;;;;;4.70;1.02;;;;;;;12.59;72.31;101159.66;5029707;28;20061;-71
2022/01/22 03:51:20;;;;;;;4.10;1.50;;;;;;;12.49;72.54;101157.72;5043738;28;20049;-71
2022/01/22 03:53:48;;;;;;;6.43;2.35;;;;;;;12.42;72.62;101146.16;5046118;28;20043;-70
2022/01/22 03:56:18;;;;;;;4.65;2.22;;;;;;;12.38;72.90;101144.34;5047967;28;20092;-70
2022/01/22 03:59:04;;;;;;;2.20;1.10;;;;;;;12.28;72.88;101138.00;5023775;28;20037;-71
2022/01/22 04:02:38;;;;;;;4.18;1.20;;;;;;;12.24;73.16;101132.66;4970634;28;20518;-71
2022/01/22 04:05:04;;;;;;;4.75;1.20;;;;;;;12.17;73.15;101133.44;5027544;28;20111;-71
2022/01/22 04:10:21;;;;;;;3.45;1.00;;;;;;;12.10;72.87;101136.84;4986971;28;20049;-70
2022/01/22 04:12:58;;;;;;;4.28;2.03;;;;;;;12.13;72.64;101135.16;4985344;28;20462;-70
2022/01/22 04:15:28;;;;;;;7.82;1.63;;;;;;;12.10;72.33;101140.38;4972971;28;20047;-71
2022/01/22 04:26:21;;;;;;;6.25;1.33;;;;;;;11.84;72.56;101137.34;5015845;28;20033;-70
2022/01/22 04:28:51;;;;;;;2.92;1.23;;;;;;;11.88;72.32;101138.28;5035723;28;20042;-71
2022/01/22 04:31:19;;;;;;;5.50;1.63;;;;;;;11.87;72.01;101136.50;5023119;28;20037;-70
2022/01/22 04:33:47;;;;;;;3.00;1.45;;;;;;;11.81;72.00;101134.66;5009737;28;20041;-70
2022/01/22 04:36:15;;;;;;;2.40;1.40;;;;;;;11.79;71.93;101124.91;5031236;28;20120;-70
2022/01/22 04:38:43;;;;;;;4.55;1.73;;;;;;;11.79;71.81;101124.91;5029881;28;20513;-70
2022/01/22 04:41:11;;;;;;;4.80;1.60;;;;;;;11.78;71.71;101123.13;5020438;28;20379;-71
2022/01/22 04:43:41;;;;;;;4.45;1.50;;;;;;;11.82;71.55;101124.94;5010998;28;20677;-70
2022/01/22 04:46:19;;;;;;;4.68;1.40;;;;;;;11.82;71.46;101114.34;5033956;28;20443;-70
2022/01/22 04:49:05;;;;;;;5.35;1.40;;;;;;;11.78;71.44;101116.06;5045182;28;20079;-70
2022/01/22 04:57:02;;;;;;;;;;;;;;;11.72;71.26;101121.22;5043567;28;20042;-70
2022/01/22 04:59:30;;;;;;;3.38;1.50;;;;;;;11.70;71.26;101119.41;5021597;28;19922;-70
2022/01/22 05:01:59;;;;;;;5.40;1.88;;;;;;;11.76;71.26;101120.44;5025811;28;20072;-70
2022/01/22 05:04:36;;;;;;;6.13;1.65;;;;;;;11.83;71.12;101126.72;5049125;28;20052;-70
2022/01/22 05:07:17;;;;;;;2.85;1.63;;;;;;;11.82;71.08;101122.28;5048784;28;20037;-70
2022/01/22 05:10:08;;;;;;;3.08;1.33;;;;;;;11.81;71.03;101116.13;5040814;28;20043;-70
2022/01/22 05:12:37;;;;;;;8.55;2.17;;;;;;;11.75;71.31;101125.72;5029707;28;20060;-70
2022/01/22 05:15:05;;;;;;;6.32;2.33;;;;;;;11.79;71.18;101112.56;5027076;28;20041;-70
2022/01/22 05:17:38;;;;;;;5.20;2.20;;;;;;;11.74;71.44;101116.91;5029146;28;20049;-70
2022/01/22 05:20:18;;;;;;;10.50;5.68;;;;;;;11.73;71.25;101112.44;5028221;28;20053;-70
2022/01/22 05:22:55;;;;;;;24.15;13.25;;;;;;;11.76;70.88;101116.91;5042452;28;20049;-70
2022/01/22 05:25:33;;;;;;;15.32;9.75;;;;;;;11.82;70.87;101112.59;5009625;28;20050;-70
2022/01/22 05:28:13;;;;;;;14.20;8.07;;;;;;;11.91;70.76;101126.00;5014581;28;20064;-71
2022/01/22 05:31:19;;;;;;;8.20;3.70;;;;;;;11.91;70.45;101114.50;5047841;28;20044;-70
2022/01/22 05:37:04;;;;;;;5.47;3.00;;;;;;;12.22;69.77;101108.81;5013741;28;20048;-70
2022/01/22 05:39:36;;;;;;;7.25;3.30;;;;;;;12.41;69.06;101103.75;5020282;28;20037;-70
2022/01/22 05:42:09;;;;;;;7.80;2.28;;;;;;;12.54;68.62;101101.31;5013314;28;20072;-71
2022/01/22 05:44:37;;;;;;;8.77;2.23;;;;;;;12.62;68.11;101096.09;5025051;28;20037;-70
2022/01/22 05:47:06;;;;;;;8.38;2.33;;;;;;;12.68;67.84;101098.81;5023563;28;20045;-71
2022/01/22 05:49:42;;;;;;;9.25;2.30;;;;;;;12.70;67.66;101105.03;5008594;28;20129;-71
2022/01/22 05:52:13;;;;;;;5.22;1.83;;;;;;;12.65;67.35;101109.41;5016790;28;20681;-70
2022/01/22 05:55:09;;;;;;;3.28;1.50;;;;;;;12.64;67.23;101113.81;5011887;28;20046;-69
2022/01/22 06:00:32;;;;;;;4.93;2.50;;;;;;;12.62;66.69;101118.19;5012063;28;20151;-70
2022/01/22 06:03:12;;;;;;;12.35;8.30;;;;;;;12.59;66.70;101118.16;5032063;28;20042;-70
2022/01/22 06:05:42;;;;;;;17.50;12.38;;;;;;;12.56;66.61;101109.28;5039359;28;20047;-69
2022/01/22 06:08:14;;;;;;;22.98;19.83;;;;;;;12.48;66.76;101110.91;5046656;28;20045;-70
2022/01/22 06:10:42;;;;;;;27.30;22.92;;;;;;;12.46;66.75;101102.97;5035545;28;20041;-70
2022/01/22 06:13:14;;;;;;;31.85;26.05;;;;;;;12.42;66.90;101101.16;5029670;28;20736;-70
2022/01/22 06:15:43;;;;;;;52.17;41.93;;;;;;;12.50;67.16;101099.50;5040940;28;20043;-70
2022/01/22 06:18:26;;;;;;;113.68;96.53;;;;;;;12.87;66.94;101102.59;5032794;28;20279;-70
2022/01/22 06:20:56;;;;;;;61.22;47.90;;;;;;;13.21;66.24;101099.47;5044986;28;20035;-70
2022/01/22 06:23:24;;;;;;;33.20;26.13;;;;;;;13.47;65.64;101103.25;5030449;28;20132;-70
2022/01/22 06:25:52;;;;;;;17.15;12.02;;;;;;;13.79;64.97;101108.84;5027195;28;20095;-70
2022/01/22 06:28:23;;;;;;;13.18;9.10;;;;;;;14.13;64.35;101099.34;5049486;28;20057;-70
2022/01/22 06:30:52;;;;;;;20.05;16.38;;;;;;;14.31;63.50;101093.25;5033590;28;20062;-70
2022/01/22 06:33:20;;;;;;;23.30;16.15;;;;;;;14.44;63.14;101099.59;5025340;28;20040;-70
2022/01/22 06:35:47;;;;;;;31.88;22.95;;;;;;;14.64;63.00;101092.56;5047174;28;20045;-70
2022/01/22 06:38:17;;;;;;;15.93;11.45;;;;;;;14.89;62.69;101101.56;5045775;28;20183;-70
2022/01/22 06:44:19;;;;;;;7.10;4.20;;;;;;;15.35;61.11;101086.59;4979862;28;20053;-70
2022/01/22 06:46:55;;;;;;;7.55;2.38;;;;;;;15.49;59.79;101080.38;5011957;28;20041;-68
2022/01/22 06:49:49;;;;;;;2.65;1.08;;;;;;;15.71;59.32;101083.97;5023073;28;20041;-68
2022/01/22 06:52:37;;;;;;;5.00;2.28;;;;;;;15.88;57.87;101090.16;5025118;28;20124;-69
2022/01/22 06:55:12;;;;;;;4.28;1.30;;;;;;;16.09;57.21;101075.06;5046036;28;20069;-69
2022/01/22 06:57:40;;;;;;;5.43;1.00;;;;;;;16.21;56.00;101083.03;5046008;28;20044;-69
2022/01/22 07:00:11;;;;;;;3.00;0.77;;;;;;;16.48;55.57;101080.28;5025455;28;20069;-69
2022/01/22 07:02:49;;;;;;;2.63;0.70;;;;;;;16.68;54.55;101074.91;5059623;28;20048;-69
2022/01/22 07:05:17;;;;;;;0.65;0.43;;;;;;;16.83;54.34;101068.63;5027750;28;20121;-69
2022/01/22 07:08:07;;;;;;;1.48;0.40;;;;;;;16.89;53.16;101076.56;5035011;28;20045;-69
2022/01/22 07:10:40;;;;;;;1.67;0.65;;;;;;;17.07;52.86;101074.69;5043255;28;20060;-68
2022/01/22 07:13:08;;;;;;;2.55;1.20;;;;;;;17.15;51.64;101074.66;5029096;28;20040;-69
2022/01/22 07:15:36;;;;;;;3.08;1.10;;;;;;;17.43;52.07;101062.91;5036648;28;20068;-69
2022/01/22 07:18:20;;;;;;;5.13;1.00;;;;;;;17.70;51.77;101061.81;5030291;28;20524;-69
2022/01/22 07:20:50;;;;;;;2.70;1.70;;;;;;;17.92;50.98;101059.81;5056541;28;20060;-69
2022/01/22 07:23:30;;;;;;;3.08;1.35;;;;;;;18.04;49.94;101049.03;5033084;28;20033;-70
2022/01/22 07:26:06;;;;;;;3.03;0.70;;;;;;;18.23;49.80;101049.72;5037264;28;20448;-70
2022/01/22 07:28:52;;;;;;;9.50;5.95;;;;;;;18.32;49.18;101054.94;5051407;28;20578;-70
2022/01/22 07:31:23;;;;;;;11.73;9.27;;;;;;;18.54;48.50;101050.22;5055847;28;20156;-70
2022/01/22 07:33:51;;;;;;;3.83;1.80;;;;;;;18.69;48.15;101042.06;5068998;28;20041;-70
2022/01/22 07:36:19;;;;;;;4.60;1.10;;;;;;;18.95;47.29;101039.91;5027300;28;20506;-70
2022/01/22 07:38:48;;;;;;;3.55;0.82;;;;;;;19.18;46.99;101038.66;5031482;28;20048;-70
2022/01/22 07:41:17;;;;;;;2.42;1.02;;;;;;;19.30;46.57;101041.16;5031384;28;20056;-70
2022/01/22 07:43:53;;;;;;;5.28;0.88;;;;;;;19.27;45.73;101027.81;5037418;28;20562;-70
2022/01/22 07:46:27;;;;;;;3.25;1.25;;;;;;;19.37;46.02;101030.31;5027851;28;20049;-70
2022/01/22 07:49:06;;;;;;;4.38;1.13;;;;;;;19.61;46.33;101026.41;5039506;28;20054;-70
2022/01/22 07:51:44;;;;;;;4.18;1.05;;;;;;;19.88;45.45;101025.91;5000516;28;20053;-70
2022/01/22 07:54:12;;;;;;;4.85;1.15;;;;;;;19.66;44.93;101029.88;5008023;28;20115;-69
2022/01/22 07:56:42;;;;;;;3.72;0.73;;;;;;;19.36;45.36;101033.06;5017521;28;20048;-69
2022/01/22 07:59:11;;;;;;;3.28;0.98;;;;;;;19.07;45.82;101023.66;5013983;28;20048;-69
2022/01/22 08:01:44;;;;;;;5.85;1.88;;;;;;;18.60;46.22;101024.34;5026591;28;20507;-69
2022/01/22 08:04:23;;;;;;;1.50;0.60;;;;;;;18.35;46.75;101032.66;5019200;28;20057;-69
2022/01/22 08:06:58;;;;;;;2.80;0.82;;;;;;;18.68;46.79;101026.91;5015449;28;20034;-69
2022/01/22 08:09:45;;;;;;;6.22;2.17;;;;;;;19.19;46.91;101027.94;5030591;28;20519;-69
2022/01/22 08:12:24;;;;;;;13.27;10.05;;;;;;;19.56;46.43;101030.06;5013266;28;20049;-69
2022/01/22 08:14:56;;;;;;;19.92;14.77;;;;;;;19.73;46.37;101028.88;5026227;28;20041;-69
2022/01/22 08:17:24;;;;;;;16.10;11.40;;;;;;;19.89;46.78;101024.97;5027261;28;20049;-69
2022/01/22 08:19:53;;;;;;;14.38;12.77;;;;;;;20.03;46.64;101042.59;5021826;28;20045;-69
2022/01/22 08:22:41;;;;;;;14.40;10.95;;;;;;;20.23;46.70;101038.63;5027942;28;20047;-69
2022/01/22 08:25:30;;;;;;;4.85;1.48;;;;;;;20.55;46.79;101031.75;5050303;28;20042;-69
2022/01/22 08:30:54;;;;;;;3.60;0.98;;;;;;;20.16;45.71;101038.78;5045485;28;20114;-69
2022/01/22 08:35:52;;;;;;;5.78;1.90;;;;;;;19.86;45.99;101029.53;5017804;28;20041;-70
2022/01/22 08:36:32;;;;;;;7.78;2.17;;;;;;;19.84;45.14;101025.97;5016925;28;20056;-70
2022/01/22 08:39:00;;;;;;;3.60;1.65;;;;;;;20.18;44.11;101029.81;5043665;28;20045;-69
2022/01/22 08:41:30;;;;;;;6.90;1.77;;;;;;;20.67;43.08;101016.31;5027765;28;20045;-69
2022/01/22 08:44:00;;;;;;;7.82;3.28;;;;;;;21.10;42.63;101023.38;5025649;28;20049;-70
2022/01/22 08:46:28;;;;;;;4.38;1.63;;;;;;;21.46;42.48;101019.81;5021487;28;20060;-69
2022/01/22 08:48:56;;;;;;;6.30;1.48;;;;;;;21.82;42.06;101022.50;5033156;28;20041;-70
2022/01/22 08:51:26;;;;;;;4.25;0.90;;;;;;;21.97;42.33;101024.81;5017314;28;20048;-70
2022/01/22 08:53:55;;;;;;;2.97;1.20;;;;;;;21.97;42.31;101027.50;5014078;28;20055;-70
2022/01/22 08:56:23;;;;;;;2.72;1.17;;;;;;;21.78;41.98;101032.47;5018002;28;20707;-70
2022/01/22 08:58:51;;;;;;;7.65;2.33;;;;;;;21.24;41.63;101021.28;5015526;28;20057;-69
2022/01/22 09:01:32;;;;;;;3.97;1.20;;;;;;;20.66;41.95;101024.38;5021737;28;20559;-69
2022/01/22 09:04:06;;;;;;;4.28;2.03;;;;;;;20.25;42.77;101010.00;5018821;28;20037;-69
2022/01/22 09:06:54;;;;;;;7.25;4.50;;;;;;;20.18;43.83;101016.41;5018500;28;20047;-69
2022/01/22 09:10:00;;;;;;;5.78;2.65;;;;;;;19.63;44.29;101007.59;5020098;28;20041;-70
2022/01/22 09:12:51;;;;;;;7.85;4.88;;;;;;;19.06;44.94;101003.16;5028323;28;20053;-69
2022/01/22 09:15:27;;;;;;;5.65;2.30;;;;;;;19.23;45.57;100996.69;5027414;28;20072;-70
2022/01/22 09:17:57;;;;;;;2.92;1.00;;;;;;;19.53;45.98;100987.25;5024928;28;20777;-69
2022/01/22 09:20:55;;;;;;;5.60;1.17;;;;;;;19.66;46.00;100972.75;5031978;28;20068;-69
2022/01/22 09:23:23;;;;;;;4.05;0.98;;;;;;;20.00;45.81;100964.94;5010557;28;20038;-69
2022/01/22 09:25:51;;;;;;;2.65;0.90;;;;;;;19.79;45.08;100959.09;5028285;28;20053;-69
2022/01/22 09:28:19;;;;;;;1.88;0.52;;;;;;;19.82;44.93;100950.97;5054723;28;20512;-69
2022/01/22 09:30:49;;;;;;;4.28;0.90;;;;;;;19.88;45.12;100941.97;5031041;28;20095;-70
2022/01/22 09:33:19;;;;;;;3.28;0.90;;;;;;;20.04;45.25;100945.19;5028786;28;20087;-69
2022/01/22 09:36:07;;;;;;;2.40;1.05;;;;;;;20.01;44.55;100943.50;5026170;28;20102;-69
2022/01/22 09:38:54;;;;;;;3.40;0.73;;;;;;;19.88;44.85;100932.13;5046118;28;20041;-69
2022/01/22 09:41:41;;;;;;;3.15;0.80;;;;;;;19.97;44.63;100925.69;5041733;28;20040;-69
2022/01/22 09:44:27;;;;;;;6.03;1.70;;;;;;;19.55;44.82;100937.25;5039706;28;20515;-69
2022/01/22 09:47:21;;;;;;;8.77;1.58;;;;;;;19.32;45.67;100934.94;5027633;28;20047;-68
2022/01/22 09:50:11;;;;;;;5.22;1.95;;;;;;;19.01;46.19;100937.25;4998145;28;20045;-68
2022/01/22 09:52:55;;;;;;;4.50;1.10;;;;;;;18.80;46.89;100925.09;5006573;28;20052;-69
2022/01/22 09:55:52;;;;;;;2.30;1.05;;;;;;;18.46;47.61;100908.63;4966753;28;20093;-69
2022/01/22 09:58:34;;;;;;;6.60;2.58;;;;;;;18.33;48.07;100910.59;5016819;28;20112;-69
2022/01/22 10:01:40;;;;;;;1.42;0.93;;;;;;;18.31;48.04;100904.38;4986845;28;20061;-68
2022/01/22 10:04:13;;;;;;;3.53;0.90;;;;;;;18.37;47.69;100906.09;4970399;28;20045;-68
2022/01/22 10:06:53;;;;;;;8.15;1.52;;;;;;;18.32;48.06;100903.47;5000322;28;20049;-68
2022/01/22 10:09:55;;;;;;;5.00;1.27;;;;;;;18.30;48.47;100907.09;4986077;28;20051;-69
2022/01/22 10:12:51;;;;;;;6.68;3.63;;;;;;;18.18;49.21;100909.94;4997607;28;20107;-68
2022/01/22 10:15:49;;;;;;;5.32;1.80;;;;;;;17.92;50.47;100902.22;5035486;28;20053;-68
2022/01/22 10:18:20;;;;;;;2.97;1.13;;;;;;;17.75;51.52;100914.91;5019322;28;20547;-68
2022/01/22 10:20:48;;;;;;;11.30;5.55;;;;;;;17.59;51.98;100906.13;5028634;28;20045;-68
2022/01/22 10:23:26;;;;;;;18.77;10.52;;;;;;;17.62;52.34;100899.91;5031126;28;20049;-68
2022/01/22 10:26:03;;;;;;;12.23;5.40;;;;;;;17.67;52.70;100900.75;5052999;28;20032;-69
2022/01/22 10:28:39;;;;;;;6.75;3.85;;;;;;;17.81;52.35;100886.34;5037464;28;20056;-69
2022/01/22 10:31:17;;;;;;;10.27;4.05;;;;;;;18.02;52.27;100890.53;5019181;28;20037;-69
2022/01/22 10:34:12;;;;;;;10.73;3.38;;;;;;;18.23;52.23;100873.34;5038073;28;20485;-69
2022/01/22 10:37:13;;;;;;;13.13;3.80;;;;;;;18.30;51.96;100865.22;5030572;28;20083;-69
2022/01/22 10:39:48;;;;;;;3.72;1.45;;;;;;;18.44;52.93;100861.44;5030792;28;20457;-69
2022/01/22 10:42:25;;;;;;;9.82;3.38;;;;;;;18.50;53.16;100869.38;5025414;28;20037;-68
2022/01/22 10:45:00;;;;;;;8.20;3.17;;;;;;;18.59;53.57;100854.09;5020327;28;20405;-69
2022/01/22 10:47:28;;;;;;;9.65;3.45;;;;;;;18.57;53.50;100850.56;5019960;28;20488;-69
2022/01/22 10:49:55;;;;;;;7.32;2.58;;;;;;;18.48;53.23;100856.03;5023318;28;20405;-69
2022/01/22 10:52:23;;;;;;;9.48;3.53;;;;;;;18.39;53.18;100861.50;5024115;28;20057;-68
2022/01/22 10:55:02;;;;;;;8.02;3.28;;;;;;;18.36;53.14;100858.00;5008584;28;20052;-69
2022/01/22 10:57:29;;;;;;;7.38;3.38;;;;;;;18.25;53.13;100855.47;5021148;28;20064;-68
2022/01/22 10:59:58;;;;;;;8.05;3.67;;;;;;;18.27;53.09;100845.66;5023039;28;20524;-68
2022/01/22 11:02:33;;;;;;;6.18;2.15;;;;;;;18.46;52.46;100836.44;5023892;28;20388;-69
2022/01/22 11:05:01;;;;;;;8.90;2.05;;;;;;;18.53;52.25;100845.25;5008820;28;20547;-69
2022/01/22 11:07:29;;;;;;;8.15;3.25;;;;;;;18.61;52.58;100832.69;5011320;28;20053;-69
2022/01/22 11:09:59;;;;;;;6.60;2.13;;;;;;;18.58;52.35;100832.72;5052534;28;20383;-69
2022/01/22 11:12:27;;;;;;;5.72;1.65;;;;;;;18.57;52.56;100837.22;5017140;28;20647;-69
2022/01/22 11:14:56;;;;;;;8.05;1.67;;;;;;;18.59;52.50;100834.47;5028007;28;20041;-69
2022/01/22 11:17:26;;;;;;;5.22;1.13;;;;;;;18.58;52.06;100836.28;5028217;28;20037;-69
2022/01/22 11:19:58;;;;;;;4.13;1.75;;;;;;;18.64;51.94;100830.81;5058422;28;20045;-69
2022/01/22 11:22:28;;;;;;;6.45;1.50;;;;;;;18.74;52.03;100828.00;5016036;28;20067;-69
2022/01/22 11:24:59;;;;;;;5.80;2.10;;;;;;;18.73;51.94;100828.91;5027127;28;20050;-69
2022/01/22 11:27:27;;;;;;;5.65;2.03;;;;;;;18.55;51.81;100827.41;5027139;28;20037;-69
2022/01/22 11:29:58;;;;;;;6.07;1.73;;;;;;;18.43;51.74;100822.25;5025075;28;20120;-69
2022/01/22 11:32:29;;;;;;;4.15;1.65;;;;;;;18.26;51.78;100828.72;5017394;28;20076;-69
2022/01/22 11:35:02;;;;;;;10.35;2.92;;;;;;;18.04;52.55;100819.28;5021040;28;20092;-68
2022/01/22 11:37:37;;;;;;;6.85;2.08;;;;;;;17.85;53.12;100813.25;5019080;28;20064;-69
2022/01/22 11:40:16;;;;;;;7.53;1.10;;;;;;;17.90;53.48;100811.44;5045791;28;20037;-69
2022/01/22 11:43:02;;;;;;;3.72;1.45;;;;;;;17.89;53.53;100816.81;5034512;28;20053;-68
2022/01/22 11:45:33;;;;;;;7.75;1.60;;;;;;;17.60;54.08;100816.25;5006594;28;20052;-69
2022/01/22 11:48:14;;;;;;;3.33;0.73;;;;;;;17.25;55.15;100806.88;5023287;28;20053;-69
2022/01/22 11:50:44;;;;;;;7.45;3.83;;;;;;;17.07;55.54;100804.38;5043401;28;20061;-68
2022/01/22 11:53:26;;;;;;;12.38;2.80;;;;;;;16.98;55.97;100810.72;5007907;28;20045;-68
2022/01/22 11:56:27;;;;;;;10.93;2.72;;;;;;;16.90;56.70;100801.00;5027239;28;20033;-69
2022/01/22 11:59:17;;;;;;;6.25;1.55;;;;;;;16.85;57.28;100803.72;5020679;28;20045;-69
2022/01/22 12:02:06;;;;;;;10.75;2.22;;;;;;;16.74;57.78;100793.16;5010482;28;20048;-68
2022/01/22 12:05:03;;;;;;;6.35;1.25;;;;;;;16.78;57.95;100801.13;4995644;28;20049;-69
2022/01/22 12:07:35;;;;;;;6.97;1.75;;;;;;;16.76;58.03;100792.25;5014093;28;20033;-68
2022/01/22 12:16:11;;;;;;;10.95;2.17;;;;;;;16.83;58.54;100796.63;5013671;28;20046;-69
2022/01/22 12:18:45;;;;;;;5.65;1.90;;;;;;;16.85;58.46;100785.06;5013638;28;20864;-68
2022/01/22 12:21:36;;;;;;;9.32;2.00;;;;;;;16.79;58.24;100792.25;5021284;28;20050;-68
2022/01/22 12:24:07;;;;;;;6.80;2.13;;;;;;;16.74;58.05;100794.94;5017274;28;20045;-68
2022/01/22 12:26:54;;;;;;;11.20;3.50;;;;;;;16.65;58.06;100792.38;5028680;28;20044;-69
2022/01/22 12:29:53;;;;;;;6.47;1.73;;;;;;;16.53;58.22;100793.31;5023078;28;20061;-69
2022/01/22 12:32:35;;;;;;;5.53;1.73;;;;;;;16.42;58.45;100789.84;5044528;28;20037;-69
2022/01/22 12:35:16;;;;;;;4.95;2.20;;;;;;;16.43;58.43;100788.94;5029897;28;20048;-69
2022/01/22 12:37:50;;;;;;;8.00;2.80;;;;;;;16.30;59.02;100774.84;5026051;28;20073;-69
2022/01/22 12:40:34;;;;;;;9.95;3.00;;;;;;;16.07;59.93;100770.59;5019711;28;20030;-69
2022/01/22 12:43:10;;;;;;;7.20;1.97;;;;;;;15.89;60.25;100772.44;5026447;28;20057;-69
2022/01/22 12:45:44;;;;;;;7.05;1.63;;;;;;;15.66;61.57;100770.81;5055223;28;20045;-69
2022/01/22 12:48:16;;;;;;;9.75;3.50;;;;;;;15.34;62.20;100789.56;5039337;28;20045;-71
2022/01/22 12:50:44;;;;;;;4.90;1.75;;;;;;;14.97;63.68;100810.91;5010486;28;20096;-69
2022/01/22 12:53:16;;;;;;;5.25;2.35;;;;;;;14.69;64.72;100820.69;5036639;28;20046;-68
2022/01/22 12:58:38;;;;;;;15.18;3.30;;;;;;;14.31;66.69;100844.53;5030389;28;20042;-70
2022/01/22 13:01:14;;;;;;;11.48;4.22;;;;;;;14.24;67.46;100845.38;5020436;28;20140;-71
2022/01/22 13:03:44;;;;;;;10.57;3.83;;;;;;;13.92;69.86;100852.38;5018212;28;20041;-71
2022/01/22 13:06:13;;;;;;;15.25;7.55;;;;;;;13.63;71.34;100825.75;5022098;28;20115;-71
2022/01/22 13:09:11;;;;;;;10.63;4.10;;;;;;;13.34;73.74;100852.13;5023638;28;20053;-71
2022/01/22 13:11:46;;;;;;;24.15;11.68;;;;;;;13.30;73.82;100858.31;5016446;28;20038;-72